Time;durP1;ratioP1;P1;durP2;ratioP2;P2;SDS_P1;SDS_P2;PMS_P1;PMS_P2;Temp;Humidity;BMP_temperature;BMP_pressure;BME280_temperature;BME280_humidity;BME280_pressure;Samples;Min_cycle;Max_cycle;Signal;HPM_P1;HPM_P2
2023/03/29 00:02:01;;;;;;;;;;;;;;;13.04;42.34;98354.91;104947;1253;60757;-60
2023/03/29 00:04:30;;;;;;;1.30;0.80;;;;;;;13.03;41.98;98351.65;104997;1252;71572;-59
2023/03/29 00:06:56;;;;;;;;;;;;;;;12.93;41.79;98353.83;104999;1251;69194;-59
2023/03/29 00:09:27;;;;;;;1.60;0.70;;;;;;;13.02;41.54;98365.13;105017;1253;71675;-59
2023/03/29 00:11:54;;;;;;;0.70;0.70;;;;;;;12.85;41.59;98367.72;105323;1250;60863;-60
2023/03/29 00:14:21;;;;;;;0.70;0.70;;;;;;;13.05;41.90;98365.77;108936;1253;59119;-60
2023/03/29 00:16:52;;;;;;;0.70;0.70;;;;;;;13.04;41.44;98369.38;106623;1253;71806;-60
2023/03/29 00:19:20;;;;;;;0.70;0.70;;;;;;;13.14;41.27;98367.55;104950;1254;68024;-60
2023/03/29 00:21:47;;;;;;;1.40;1.00;;;;;;;13.14;40.98;98362.32;104958;1255;72031;-59
2023/03/29 00:24:17;;;;;;;0.90;0.70;;;;;;;13.02;40.73;98367.23;104843;1255;61597;-62
2023/03/29 00:26:44;;;;;;;0.70;0.70;;;;;;;13.17;40.51;98369.45;104897;1251;61677;-59
2023/03/29 00:29:15;;;;;;;1.20;0.90;;;;;;;13.39;41.09;98378.04;104920;1269;72792;-59
2023/03/29 00:31:52;;;;;;;0.70;0.70;;;;;;;13.33;40.42;98376.56;104955;1262;68192;-59
2023/03/29 00:34:20;;;;;;;0.80;0.80;;;;;;;13.10;40.79;98373.66;104932;1255;70972;-59
2023/03/29 00:36:51;;;;;;;1.70;1.10;;;;;;;13.04;40.57;98377.98;104910;1258;61705;-59
2023/03/29 00:39:19;;;;;;;0.40;0.40;;;;;;;13.09;40.84;98372.85;104907;1251;61606;-60
2023/03/29 00:41:47;;;;;;;0.80;0.80;;;;;;;13.01;41.26;98381.70;104795;1256;73454;-59
2023/03/29 00:44:53;;;;;;;1.30;0.80;;;;;;;12.98;42.44;98384.91;104712;1268;68165;-59
2023/03/29 00:47:41;;;;;;;1.00;0.90;;;;;;;13.11;40.11;98383.44;104924;1266;71896;-59
2023/03/29 00:50:24;;;;;;;0.80;0.60;;;;;;;13.18;40.12;98396.27;104882;1255;61710;-59
2023/03/29 00:53:27;;;;;;;0.60;0.60;;;;;;;13.15;40.56;98404.13;104902;1265;61689;-58
2023/03/29 00:56:13;;;;;;;1.10;0.70;;;;;;;13.10;40.42;98404.13;104633;1251;73486;-58
2023/03/29 00:58:52;;;;;;;0.60;0.60;;;;;;;12.89;40.26;98406.50;105063;1256;67724;-59
2023/03/29 01:01:26;;;;;;;0.70;0.70;;;;;;;13.16;40.65;98412.65;105141;1252;71199;-59
2023/03/29 01:04:01;;;;;;;0.40;0.40;;;;;;;13.37;40.54;98420.43;104995;1269;61810;-58
2023/03/29 01:06:30;;;;;;;0.80;0.70;;;;;;;13.23;40.21;98422.52;104616;1272;61595;-58
2023/03/29 01:09:02;;;;;;;1.20;0.70;;;;;;;12.87;40.87;98427.37;104617;1255;73260;-58
2023/03/29 01:11:36;;;;;;;0.80;0.80;;;;;;;13.04;40.63;98427.95;105015;1267;68026;-58
2023/03/29 01:14:05;;;;;;;1.00;0.90;;;;;;;13.06;40.68;98430.98;105104;1253;73267;-58
2023/03/29 01:16:34;;;;;;;1.00;0.90;;;;;;;13.14;40.87;98434.29;104920;1251;61723;-58
2023/03/29 01:19:01;;;;;;;0.90;0.70;;;;;;;13.09;40.18;98434.06;104657;1257;61675;-59
2023/03/29 01:21:56;;;;;;;1.00;0.80;;;;;;;13.27;40.17;98436.11;104633;1250;72726;-58
2023/03/29 01:24:44;;;;;;;0.90;0.90;;;;;;;13.15;40.10;98435.94;104737;1256;69031;-60
2023/03/29 01:27:33;;;;;;;0.80;0.80;;;;;;;13.25;39.95;98448.77;104814;1256;71668;-58
2023/03/29 01:30:28;;;;;;;2.00;0.70;;;;;;;13.21;39.74;98454.16;104845;1255;61548;-59
2023/03/29 01:32:58;;;;;;;0.70;0.70;;;;;;;13.21;40.02;98458.74;104736;1256;61756;-59
2023/03/29 01:35:34;;;;;;;0.60;0.60;;;;;;;13.38;39.92;98462.83;104605;1270;73792;-58
2023/03/29 01:38:12;;;;;;;0.90;0.80;;;;;;;13.44;39.78;98471.17;104796;1263;70063;-59
2023/03/29 01:40:39;;;;;;;0.70;0.70;;;;;;;13.39;39.90;98474.00;104641;1251;71254;-58
2023/03/29 01:43:35;;;;;;;0.70;0.70;;;;;;;13.25;39.51;98477.48;104785;1263;61679;-59
2023/03/29 01:46:19;;;;;;;0.80;0.80;;;;;;;13.33;39.65;98480.75;105741;1253;61564;-59
2023/03/29 01:48:51;;;;;;;0.50;0.50;;;;;;;13.39;39.84;98493.05;108701;1251;72720;-60
2023/03/29 01:51:24;;;;;;;0.90;0.80;;;;;;;13.49;39.71;98500.38;106091;1252;69194;-59
2023/03/29 01:54:04;;;;;;;0.70;0.70;;;;;;;13.65;39.33;98503.23;104628;1264;72097;-59
2023/03/29 01:56:33;;;;;;;1.10;0.80;;;;;;;13.23;39.74;98504.69;105765;1253;61694;-58
2023/03/29 01:59:02;;;;;;;0.60;0.60;;;;;;;13.48;39.64;98505.77;104900;1254;61689;-59
2023/03/29 02:01:33;;;;;;;0.90;0.80;;;;;;;13.53;39.59;98512.76;105009;1253;73279;-59
2023/03/29 02:04:02;;;;;;;0.90;0.60;;;;;;;13.59;39.29;98516.20;104626;1263;69519;-60
2023/03/29 02:06:32;;;;;;;0.80;0.70;;;;;;;13.64;39.29;98523.45;104801;1256;71800;-59
2023/03/29 02:08:59;;;;;;;;;;;;;;;13.34;39.44;98527.85;104789;1254;61627;-58
2023/03/29 02:11:28;;;;;;;;;;;;;;;13.28;39.01;98531.64;104640;1252;61567;-59
2023/03/29 02:14:00;;;;;;;1.80;0.50;;;;;;;13.33;39.36;98531.09;105158;1253;73708;-58
2023/03/29 02:16:27;;;;;;;0.70;0.60;;;;;;;13.22;39.29;98536.09;105049;1250;70800;-59
2023/03/29 02:18:55;;;;;;;;;;;;;;;13.18;39.74;98533.88;104916;1254;71555;-59
2023/03/29 02:22:00;;;;;;;0.70;0.70;;;;;;;13.16;39.24;98534.23;105025;1254;61615;-59
2023/03/29 02:24:29;;;;;;;0.80;0.80;;;;;;;13.11;38.74;98535.95;104943;1251;61669;-60
2023/03/29 02:26:59;;;;;;;0.70;0.70;;;;;;;13.10;39.26;98544.48;104711;1270;73385;-59
2023/03/29 02:29:26;;;;;;;1.40;0.80;;;;;;;13.01;39.65;98547.22;104548;1258;69048;-59
2023/03/29 02:31:54;;;;;;;0.60;0.60;;;;;;;13.00;38.99;98552.95;104638;1255;71144;-59
2023/03/29 02:34:36;;;;;;;1.00;0.70;;;;;;;13.14;39.36;98554.78;104734;1251;61760;-59
2023/03/29 02:37:14;;;;;;;0.80;0.70;;;;;;;13.16;39.53;98555.33;104632;1259;61637;-59
2023/03/29 02:39:41;;;;;;;0.60;0.60;;;;;;;13.09;39.18;98554.91;105001;1254;73441;-59
2023/03/29 02:42:08;;;;;;;0.60;0.60;;;;;;;13.08;38.75;98564.15;104642;1251;68288;-59
2023/03/29 02:44:37;;;;;;;0.70;0.70;;;;;;;13.25;39.33;98566.52;104562;1251;72058;-58
2023/03/29 02:47:12;;;;;;;0.60;0.60;;;;;;;13.28;38.97;98565.91;104689;1272;61738;-59
2023/03/29 02:49:39;;;;;;;0.80;0.80;;;;;;;13.39;38.56;98560.61;104470;1251;61699;-58
2023/03/29 02:52:18;;;;;;;0.80;0.60;;;;;;;13.51;38.41;98563.25;105018;1251;72774;-62
2023/03/29 02:54:45;;;;;;;0.60;0.60;;;;;;;13.52;37.90;98555.29;104998;1254;68908;-63
2023/03/29 02:57:20;;;;;;;0.80;0.70;;;;;;;13.48;38.62;98558.39;104574;1258;71233;-63
2023/03/29 02:59:48;;;;;;;1.00;0.80;;;;;;;13.37;38.60;98565.66;104682;1256;61723;-60
2023/03/29 03:02:16;;;;;;;0.60;0.60;;;;;;;13.26;38.88;98566.09;104871;1256;61598;-60
2023/03/29 03:04:44;;;;;;;0.50;0.50;;;;;;;13.36;38.38;98571.89;104828;1257;72738;-60
2023/03/29 03:07:12;;;;;;;0.60;0.60;;;;;;;13.44;37.92;98573.26;104881;1252;68227;-61
2023/03/29 03:09:40;;;;;;;1.10;0.70;;;;;;;13.41;37.45;98575.90;104850;1267;71453;-61
2023/03/29 03:12:10;;;;;;;0.60;0.60;;;;;;;13.51;37.41;98577.17;104749;1253;61570;-60
2023/03/29 03:14:40;;;;;;;1.50;0.80;;;;;;;13.51;37.87;98583.13;104810;1263;61694;-62
2023/03/29 03:17:07;;;;;;;0.80;0.50;;;;;;;13.52;38.24;98583.08;104986;1250;73536;-61
2023/03/29 03:19:38;;;;;;;1.50;1.10;;;;;;;13.46;37.53;98586.34;104760;1256;69464;-62
2023/03/29 03:22:06;;;;;;;0.60;0.60;;;;;;;13.54;37.70;98585.55;104525;1272;73162;-61
2023/03/29 03:24:34;;;;;;;1.20;0.60;;;;;;;13.72;38.29;98590.41;104670;1258;61731;-62
2023/03/29 03:27:01;;;;;;;;;;;;;;;13.55;38.13;98593.04;104987;1265;61680;-60
2023/03/29 03:29:28;;;;;;;0.60;0.60;;;;;;;13.69;37.67;98598.25;104698;1263;72743;-60
2023/03/29 03:32:10;;;;;;;0.60;0.60;;;;;;;13.56;37.42;98603.39;104740;1251;68448;-61
2023/03/29 03:34:46;;;;;;;0.70;0.50;;;;;;;13.30;37.99;98604.00;104815;1253;71467;-61
2023/03/29 03:37:14;;;;;;;0.50;0.50;;;;;;;13.38;37.98;98602.73;104891;1254;61592;-61
2023/03/29 03:39:42;;;;;;;;;;;;;;;13.08;38.41;98604.44;104945;1251;61712;-61
2023/03/29 03:42:09;;;;;;;0.60;0.60;;;;;;;13.01;38.28;98607.75;104692;1267;74125;-61
2023/03/29 03:44:41;;;;;;;0.70;0.70;;;;;;;13.37;38.61;98610.57;104875;1256;69576;-62
2023/03/29 03:47:20;;;;;;;0.90;0.70;;;;;;;13.56;37.90;98608.70;104463;1257;71012;-61
2023/03/29 03:49:48;;;;;;;1.20;0.80;;;;;;;13.50;37.85;98609.48;104864;1255;61672;-61
2023/03/29 03:52:15;;;;;;;0.90;0.90;;;;;;;13.38;38.40;98612.02;104774;1251;61794;-61
2023/03/29 03:54:45;;;;;;;1.10;1.00;;;;;;;13.14;38.18;98616.52;104989;1265;72497;-61
2023/03/29 03:57:31;;;;;;;2.00;0.80;;;;;;;13.19;38.48;98621.43;104484;1251;69002;-61
2023/03/29 03:59:59;;;;;;;1.00;0.90;;;;;;;13.15;38.21;98627.51;104984;1250;71811;-61
2023/03/29 04:02:39;;;;;;;1.60;1.00;;;;;;;13.09;37.95;98621.63;104943;1254;61644;-61
2023/03/29 04:05:07;;;;;;;1.10;0.80;;;;;;;13.32;38.09;98625.34;104886;1251;61081;-61
2023/03/29 04:07:37;;;;;;;1.10;0.80;;;;;;;13.25;37.85;98624.93;104623;1257;73452;-62
2023/03/29 04:10:19;;;;;;;1.40;1.10;;;;;;;13.20;38.26;98627.34;104975;1255;69411;-61
2023/03/29 04:12:53;;;;;;;1.10;0.90;;;;;;;13.15;38.17;98633.69;104775;1251;72328;-62
2023/03/29 04:15:22;;;;;;;0.90;0.90;;;;;;;13.09;37.94;98639.52;104846;1267;61741;-61
2023/03/29 04:17:58;;;;;;;1.90;1.00;;;;;;;13.11;38.10;98640.63;104605;1254;61693;-61
2023/03/29 04:20:41;;;;;;;1.90;1.20;;;;;;;12.98;38.30;98638.17;104967;1251;72474;-61
2023/03/29 04:23:09;;;;;;;1.10;1.00;;;;;;;12.90;37.69;98647.56;104547;1263;68049;-61
2023/03/29 04:25:36;;;;;;;1.00;1.00;;;;;;;12.95;38.67;98654.09;104959;1251;71504;-61
2023/03/29 04:28:03;;;;;;;0.80;0.80;;;;;;;13.06;38.28;98657.34;104924;1251;61701;-60
2023/03/29 04:30:39;;;;;;;1.00;1.00;;;;;;;12.89;37.68;98660.66;104584;1265;61691;-61
2023/03/29 04:33:21;;;;;;;1.10;1.00;;;;;;;12.89;39.10;98665.40;104806;1262;74008;-60
2023/03/29 04:36:00;;;;;;;0.90;0.90;;;;;;;12.94;38.05;98674.89;105063;1252;68383;-61
2023/03/29 04:38:28;;;;;;;1.10;0.90;;;;;;;12.90;37.69;98675.70;104516;1267;72025;-61
2023/03/29 04:40:55;;;;;;;0.90;0.90;;;;;;;12.90;37.86;98676.54;105122;1250;61598;-62
2023/03/29 04:43:35;;;;;;;1.40;1.30;;;;;;;12.93;37.67;98675.81;104928;1254;61638;-63
2023/03/29 04:46:12;;;;;;;2.00;1.50;;;;;;;12.79;37.87;98680.29;105163;1250;72538;-63
2023/03/29 04:48:59;;;;;;;1.20;1.10;;;;;;;12.95;37.93;98680.78;105150;1251;69213;-60
2023/03/29 04:51:32;;;;;;;1.40;1.10;;;;;;;12.88;37.91;98683.42;105064;1248;72347;-60
2023/03/29 04:54:04;;;;;;;1.10;1.00;;;;;;;12.83;37.90;98686.67;104518;1257;61713;-60
2023/03/29 04:56:39;;;;;;;1.60;0.80;;;;;;;12.66;39.27;98682.71;104611;1255;61786;-60
2023/03/29 04:59:25;;;;;;;1.10;1.00;;;;;;;12.75;38.74;98685.09;104967;1254;72703;-60
2023/03/29 05:01:53;;;;;;;1.20;1.00;;;;;;;12.78;37.95;98689.16;104585;1262;68796;-60
2023/03/29 05:04:20;;;;;;;;;;;;;;;12.42;38.33;98694.65;104719;1252;71754;-60
2023/03/29 05:07:11;;;;;;;1.20;1.10;;;;;;;12.46;38.33;98696.73;105191;1255;62272;-61
2023/03/29 05:09:40;;;;;;;1.00;1.00;;;;;;;12.76;37.79;98697.03;105233;1253;61592;-62
2023/03/29 05:12:08;;;;;;;2.30;1.20;;;;;;;12.67;37.77;98693.25;104978;1249;72892;-63
2023/03/29 05:14:47;;;;;;;1.60;1.20;;;;;;;12.75;38.24;98694.24;105171;1252;68923;-63
2023/03/29 05:17:14;;;;;;;0.80;0.80;;;;;;;12.84;37.83;98695.10;104753;1263;71031;-64
2023/03/29 05:19:42;;;;;;;1.00;0.90;;;;;;;12.62;37.55;98702.16;104604;1254;61686;-62
2023/03/29 05:22:11;;;;;;;1.40;0.90;;;;;;;12.61;37.92;98704.52;104517;1262;61718;-64
2023/03/29 05:24:40;;;;;;;2.50;1.10;;;;;;;12.64;37.87;98701.52;104854;1254;73974;-62
2023/03/29 05:27:13;;;;;;;1.70;1.10;;;;;;;12.79;37.16;98704.41;105058;1253;68253;-64
2023/03/29 05:29:43;;;;;;;1.40;1.20;;;;;;;12.98;36.97;98708.55;104891;1256;71536;-64
2023/03/29 05:32:31;;;;;;;1.40;1.30;;;;;;;12.81;37.59;98711.98;104732;1267;61567;-63
2023/03/29 05:34:58;;;;;;;1.70;1.30;;;;;;;12.79;37.73;98712.80;104501;1256;61695;-64
2023/03/29 05:37:25;;;;;;;1.60;1.40;;;;;;;12.75;37.46;98715.36;104998;1254;73288;-62
2023/03/29 05:39:56;;;;;;;1.80;1.10;;;;;;;12.63;37.42;98714.41;104964;1251;68025;-63
2023/03/29 05:42:37;;;;;;;1.20;1.10;;;;;;;12.47;37.93;98720.53;104556;1258;73177;-64
2023/03/29 05:45:08;;;;;;;1.40;1.00;;;;;;;12.67;37.17;98723.09;104798;1250;61608;-64
2023/03/29 05:47:36;;;;;;;2.80;1.30;;;;;;;12.74;37.35;98723.52;104612;1269;61709;-65
2023/03/29 05:50:07;;;;;;;1.60;1.30;;;;;;;12.67;37.48;98731.89;104812;1254;73337;-62
2023/03/29 05:52:35;;;;;;;1.50;1.10;;;;;;;12.71;37.87;98737.10;105093;1248;68735;-64
2023/03/29 05:55:03;;;;;;;;;;;;;;;12.70;37.79;98733.48;104776;1251;71330;-62
2023/03/29 05:57:30;;;;;;;1.80;1.00;;;;;;;12.67;38.40;98741.41;104836;1263;63013;-66
2023/03/29 05:59:57;;;;;;;1.30;1.10;;;;;;;12.54;37.91;98751.58;104931;1261;61773;-62
2023/03/29 06:02:25;;;;;;;2.10;1.20;;;;;;;12.62;38.25;98751.89;104538;1250;73502;-64
2023/03/29 06:04:54;;;;;;;1.40;1.00;;;;;;;12.69;37.47;98754.62;104661;1250;68941;-66
2023/03/29 06:07:24;;;;;;;1.30;1.10;;;;;;;12.72;37.65;98750.57;104779;1272;72274;-61
2023/03/29 06:10:14;;;;;;;1.80;0.80;;;;;;;12.74;36.96;98756.93;104749;1258;61115;-67
2023/03/29 06:12:45;;;;;;;1.50;1.00;;;;;;;12.75;37.39;98763.03;104914;1254;61712;-67
2023/03/29 06:15:15;;;;;;;1.10;1.10;;;;;;;12.71;37.95;98769.10;105086;1250;72880;-63
2023/03/29 06:18:04;;;;;;;1.60;1.20;;;;;;;12.78;37.25;98773.70;104994;1251;68918;-65
2023/03/29 06:20:36;;;;;;;1.10;1.00;;;;;;;12.74;37.66;98782.08;104734;1260;71671;-64
2023/03/29 06:23:07;;;;;;;1.80;1.20;;;;;;;12.79;37.36;98775.08;104873;1264;61704;-64
2023/03/29 06:25:39;;;;;;;1.00;0.90;;;;;;;12.77;37.18;98781.19;104902;1263;61632;-64
2023/03/29 06:28:06;;;;;;;0.80;0.80;;;;;;;12.75;37.33;98786.75;104943;1254;73918;-63
2023/03/29 06:30:33;;;;;;;1.20;1.10;;;;;;;12.90;37.58;98791.60;105203;1250;70714;-63
2023/03/29 06:33:05;;;;;;;1.10;1.00;;;;;;;12.91;37.08;98796.61;105071;1251;72069;-64
2023/03/29 06:35:56;;;;;;;1.10;0.90;;;;;;;12.76;37.11;98793.92;104843;1254;61580;-66
2023/03/29 06:38:29;;;;;;;1.00;0.90;;;;;;;12.70;39.82;98800.79;104624;1255;61803;-67
2023/03/29 06:41:04;;;;;;;0.90;0.90;;;;;;;12.76;38.01;98797.44;105093;1251;73453;-63
2023/03/29 06:43:50;;;;;;;1.20;1.00;;;;;;;12.93;39.78;98797.75;104936;1265;69093;-64
2023/03/29 06:46:21;;;;;;;1.90;1.30;;;;;;;13.03;38.39;98800.80;104722;1262;73548;-63
2023/03/29 06:49:00;;;;;;;1.10;1.00;;;;;;;13.05;38.07;98799.23;104969;1265;61686;-65
2023/03/29 06:51:42;;;;;;;1.10;1.00;;;;;;;12.90;37.91;98809.31;104469;1257;61631;-64
2023/03/29 06:54:10;;;;;;;1.30;0.90;;;;;;;13.29;38.16;98814.29;105293;1251;73221;-63
2023/03/29 06:56:40;;;;;;;1.30;1.10;;;;;;;13.42;36.95;98815.98;104582;1266;69496;-63
2023/03/29 06:59:13;;;;;;;1.40;1.10;;;;;;;13.31;37.33;98815.27;104507;1256;71674;-63
2023/03/29 07:01:54;;;;;;;1.10;1.00;;;;;;;13.38;37.31;98823.06;105005;1254;61588;-63
2023/03/29 07:04:36;;;;;;;1.30;1.10;;;;;;;13.53;39.01;98832.10;104499;1256;61663;-62
2023/03/29 07:07:21;;;;;;;0.70;0.70;;;;;;;13.75;36.36;98832.92;104580;1258;74139;-62
2023/03/29 07:09:54;;;;;;;0.90;0.70;;;;;;;13.72;36.47;98836.45;104492;1256;68295;-63
2023/03/29 07:12:43;;;;;;;2.20;0.90;;;;;;;13.79;36.50;98834.95;104950;1250;73346;-63
2023/03/29 07:15:10;;;;;;;1.20;0.90;;;;;;;13.93;36.82;98841.17;104544;1269;61677;-67
2023/03/29 07:18:12;;;;;;;1.00;0.80;;;;;;;13.85;36.06;98846.48;104701;1251;61670;-64
2023/03/29 07:20:41;;;;;;;1.40;1.10;;;;;;;13.63;36.30;98845.91;104794;1253;73457;-64
2023/03/29 07:23:09;;;;;;;0.80;0.80;;;;;;;13.98;36.74;98854.22;104574;1248;69525;-63
2023/03/29 07:25:37;;;;;;;;;;;;;;;13.87;36.14;98861.37;105173;1250;73393;-64
2023/03/29 07:28:04;;;;;;;;;;;;;;;13.91;35.77;98864.21;105292;1258;61841;-63
2023/03/29 07:30:31;;;;;;;1.50;1.20;;;;;;;14.10;35.31;98871.88;105367;1250;61768;-65
2023/03/29 07:33:25;;;;;;;1.20;1.10;;;;;;;14.26;35.78;98880.65;105586;1250;74388;-65
2023/03/29 07:36:00;;;;;;;1.10;1.00;;;;;;;14.20;35.95;98877.59;104892;1250;68823;-63
2023/03/29 07:38:44;;;;;;;1.30;1.00;;;;;;;14.18;35.47;98881.60;105082;1249;72482;-63
2023/03/29 07:41:16;;;;;;;1.20;0.90;;;;;;;14.03;35.53;98885.20;105353;1249;61786;-64
2023/03/29 07:43:50;;;;;;;0.90;0.90;;;;;;;14.30;35.24;98889.52;104995;1253;61680;-63
2023/03/29 07:46:23;;;;;;;0.90;0.90;;;;;;;14.04;35.18;98888.48;105099;1251;73378;-64
2023/03/29 07:48:52;;;;;;;1.10;1.00;;;;;;;14.06;35.58;98891.59;105129;1255;68665;-64
2023/03/29 07:51:19;;;;;;;1.20;1.00;;;;;;;14.12;36.12;98890.05;105531;1252;72529;-64
2023/03/29 07:53:55;;;;;;;1.50;0.90;;;;;;;14.13;36.04;98894.61;105132;1250;61692;-63
2023/03/29 07:56:36;;;;;;;1.10;0.80;;;;;;;14.35;36.12;98893.99;105625;1248;60989;-63
2023/03/29 07:59:26;;;;;;;1.10;0.90;;;;;;;14.42;35.32;98900.33;107853;1250;73657;-63
2023/03/29 08:02:05;;;;;;;1.30;1.10;;;;;;;17.02;36.34;98892.38;104952;1257;69601;-63
2023/03/29 08:04:44;;;;;;;1.10;1.00;;;;;;;17.62;34.94;98894.75;105217;1265;72878;-63
2023/03/29 08:07:17;;;;;;;0.90;0.90;;;;;;;17.54;33.05;98895.64;104977;1254;61708;-61
2023/03/29 08:10:11;;;;;;;1.10;0.80;;;;;;;17.19;31.65;98904.27;104726;1264;61091;-62
2023/03/29 08:12:56;;;;;;;1.80;1.30;;;;;;;15.84;32.89;98907.89;105003;1250;73887;-63
2023/03/29 08:15:34;;;;;;;1.60;1.00;;;;;;;15.86;33.23;98912.48;105271;1249;69779;-65
2023/03/29 08:18:01;;;;;;;1.70;1.20;;;;;;;15.70;33.22;98921.45;105141;1251;72334;-64
2023/03/29 08:20:32;;;;;;;1.10;1.10;;;;;;;15.51;33.16;98924.27;105029;1250;61700;-64
2023/03/29 08:23:01;;;;;;;1.60;1.20;;;;;;;15.27;34.11;98929.41;104853;1250;61613;-64
2023/03/29 08:25:46;;;;;;;1.30;1.10;;;;;;;15.41;33.78;98926.09;104865;1251;74301;-63
2023/03/29 08:29:30;;;;;;;2.30;1.10;;;;;;;13.72;37.39;98936.44;102129;1305;599805;-62
2023/03/29 08:31:59;;;;;;;1.30;1.00;;;;;;;15.15;34.21;98929.91;104580;1266;60495;-62
2023/03/29 08:34:30;;;;;;;0.90;0.90;;;;;;;15.27;33.87;98936.48;104440;1268;60705;-63
2023/03/29 08:37:28;;;;;;;1.00;1.00;;;;;;;15.31;33.73;98939.50;105020;1257;71662;-63
2023/03/29 08:39:59;;;;;;;1.30;1.20;;;;;;;15.45;33.71;98936.36;104756;1263;67645;-64
2023/03/29 08:43:16;;;;;;;1.20;1.10;;;;;;;15.22;33.41;98942.42;104997;1250;253237;-63
2023/03/29 08:46:26;;;;;;;1.20;1.10;;;;;;;14.92;34.28;98938.79;105064;1253;62481;-61
2023/03/29 08:49:12;;;;;;;1.60;1.50;;;;;;;14.82;35.71;98947.98;104702;1259;60462;-61
2023/03/29 08:51:45;;;;;;;1.30;1.20;;;;;;;15.01;35.33;98950.48;104933;1251;71538;-61
2023/03/29 08:54:19;;;;;;;1.00;0.90;;;;;;;15.01;37.30;98951.39;105534;1249;68614;-61
2023/03/29 08:57:16;;;;;;;1.20;1.10;;;;;;;15.14;35.21;98949.08;105234;1253;71478;-66
2023/03/29 08:59:50;;;;;;;1.30;1.20;;;;;;;15.13;35.39;98957.39;105076;1253;61337;-65
2023/03/29 09:02:25;;;;;;;1.20;1.10;;;;;;;15.07;35.74;98966.52;105395;1253;61262;-62
2023/03/29 09:05:05;;;;;;;3.00;1.50;;;;;;;15.06;35.16;98970.82;104715;1255;72966;-62
2023/03/29 09:07:42;;;;;;;2.60;1.40;;;;;;;14.94;34.46;98972.16;104988;1254;68553;-62
2023/03/29 09:10:15;;;;;;;1.40;1.30;;;;;;;14.98;35.35;98966.80;105174;1251;71665;-62
2023/03/29 09:12:55;;;;;;;2.90;1.30;;;;;;;14.49;35.40;98958.41;105342;1265;60876;-64
2023/03/29 09:15:37;;;;;;;1.60;1.20;;;;;;;14.49;36.42;98969.16;105198;1251;61334;-62
2023/03/29 09:18:20;;;;;;;1.40;1.30;;;;;;;14.70;36.42;98968.57;108759;1247;73632;-63
2023/03/29 09:21:24;;;;;;;1.40;1.20;;;;;;;15.20;36.53;98972.08;108936;1250;70086;-64
2023/03/29 09:24:18;;;;;;;1.70;1.10;;;;;;;17.89;32.54;98976.70;108447;1248;72603;-64
2023/03/29 09:27:01;;;;;;;1.20;0.90;;;;;;;18.45;31.19;98967.20;108254;1253;60868;-66
2023/03/29 09:29:49;;;;;;;1.00;0.90;;;;;;;19.12;30.08;98966.87;105608;1247;60902;-63
2023/03/29 09:32:22;;;;;;;1.30;1.20;;;;;;;19.60;29.61;98967.73;105643;1251;71481;-63
2023/03/29 09:35:19;;;;;;;1.30;1.20;;;;;;;17.83;30.91;98985.73;105665;1250;68636;-62
2023/03/29 09:37:48;;;;;;;2.10;1.50;;;;;;;16.75;32.16;98993.66;105221;1258;71212;-62
2023/03/29 09:40:44;;;;;;;1.70;1.30;;;;;;;16.88;32.30;99000.69;105138;1248;60789;-62
2023/03/29 09:43:21;;;;;;;1.50;1.30;;;;;;;17.16;32.00;98999.83;104701;1255;60944;-62
2023/03/29 09:45:52;;;;;;;1.40;1.30;;;;;;;17.18;32.09;99005.73;105710;1247;73519;-63
2023/03/29 09:48:20;;;;;;;1.60;1.20;;;;;;;16.48;32.57;99005.87;105059;1249;69209;-63
2023/03/29 09:50:53;;;;;;;1.30;1.20;;;;;;;17.01;32.16;99007.22;105659;1247;72578;-64
2023/03/29 09:53:35;;;;;;;1.20;1.10;;;;;;;16.93;31.88;99009.65;104911;1259;60750;-63
2023/03/29 09:56:25;;;;;;;1.40;1.00;;;;;;;17.06;31.49;99010.52;105845;1248;60776;-62
2023/03/29 09:59:04;;;;;;;1.40;1.30;;;;;;;17.03;31.93;99019.61;105463;1248;71271;-63
2023/03/29 10:01:37;;;;;;;1.00;0.90;;;;;;;17.03;31.86;99027.23;105345;1254;69867;-61
2023/03/29 10:04:08;;;;;;;1.80;1.30;;;;;;;17.02;31.51;99031.23;105650;1249;72211;-66
2023/03/29 10:06:48;;;;;;;1.40;1.30;;;;;;;17.36;31.32;99036.80;105158;1254;60854;-63
2023/03/29 10:09:20;;;;;;;1.50;1.00;;;;;;;17.50;30.91;99034.67;105357;1252;60867;-58
2023/03/29 10:11:52;;;;;;;1.00;1.00;;;;;;;17.32;30.87;99033.25;105741;1247;73460;-65
2023/03/29 10:14:30;;;;;;;1.20;1.00;;;;;;;17.12;30.97;99032.77;104865;1256;69611;-60
2023/03/29 10:16:59;;;;;;;0.80;0.80;;;;;;;17.10;31.40;99038.06;106531;1248;70958;-60
2023/03/29 10:19:33;;;;;;;1.20;1.00;;;;;;;17.39;31.47;99041.08;108991;1249;58749;-60
2023/03/29 10:22:15;;;;;;;1.00;1.00;;;;;;;17.26;30.81;99042.98;109008;1247;59490;-61
2023/03/29 10:24:50;;;;;;;1.00;0.90;;;;;;;17.30;31.37;99042.65;108831;1247;74312;-61
2023/03/29 10:27:23;;;;;;;1.20;1.10;;;;;;;17.42;31.00;99047.03;107859;1250;69229;-62
2023/03/29 10:29:51;;;;;;;0.70;0.70;;;;;;;17.19;30.87;99049.18;106079;1253;71886;-63
2023/03/29 10:32:32;;;;;;;1.40;1.30;;;;;;;17.13;31.24;99050.91;105425;1250;60864;-63
2023/03/29 10:35:34;;;;;;;0.80;0.80;;;;;;;17.10;31.15;99049.23;105243;1251;60838;-63
2023/03/29 10:38:05;;;;;;;0.90;0.90;;;;;;;17.14;30.39;99055.25;105230;1252;74294;-61
2023/03/29 10:40:34;;;;;;;1.40;1.00;;;;;;;16.90;30.87;99056.08;105125;1263;69020;-61
2023/03/29 10:43:13;;;;;;;0.90;0.90;;;;;;;17.24;31.08;99051.80;105077;1247;71249;-61
2023/03/29 10:45:42;;;;;;;1.20;1.10;;;;;;;17.24;30.67;99048.98;105506;1252;60864;-62
2023/03/29 10:48:12;;;;;;;0.80;0.80;;;;;;;17.53;30.62;99053.54;105201;1255;60790;-61
2023/03/29 10:50:41;;;;;;;0.80;0.80;;;;;;;17.55;30.57;99055.20;104991;1254;72062;-61
2023/03/29 10:53:14;;;;;;;1.10;0.80;;;;;;;17.28;30.07;99049.89;105198;1271;68871;-61
2023/03/29 10:55:51;;;;;;;1.00;0.90;;;;;;;17.01;30.94;99049.53;105320;1252;72038;-64
2023/03/29 10:58:47;;;;;;;1.30;1.10;;;;;;;16.74;30.93;99055.35;105174;1253;60908;-62
2023/03/29 11:01:18;;;;;;;1.00;0.90;;;;;;;17.06;30.45;99054.66;104849;1253;61645;-62
2023/03/29 11:04:02;;;;;;;1.50;0.90;;;;;;;17.30;30.46;99054.55;105194;1252;72156;-62
2023/03/29 11:06:57;;;;;;;2.50;1.50;;;;;;;16.94;30.44;99061.98;105235;1269;68947;-61
2023/03/29 11:09:27;;;;;;;1.30;0.80;;;;;;;17.01;30.80;99063.89;105095;1249;71315;-62
2023/03/29 11:12:04;;;;;;;1.40;1.30;;;;;;;17.13;31.22;99056.38;105082;1250;60885;-62
2023/03/29 11:15:17;;;;;;;1.70;1.00;;;;;;;17.02;30.14;99056.02;105417;1252;60776;-62
2023/03/29 11:18:01;;;;;;;4.40;1.10;;;;;;;16.82;30.50;99061.11;105277;1253;73170;-62
2023/03/29 11:21:00;;;;;;;1.20;1.10;;;;;;;17.05;30.77;99064.25;105257;1253;68391;-62
2023/03/29 11:23:40;;;;;;;2.80;1.10;;;;;;;16.87;30.40;99066.40;105257;1262;72494;-61
2023/03/29 11:26:43;;;;;;;1.90;1.40;;;;;;;17.21;30.71;99068.37;105233;1248;60873;-63
2023/03/29 11:29:34;;;;;;;2.00;1.10;;;;;;;17.79;30.04;99068.46;105423;1252;61273;-61
2023/03/29 11:32:28;;;;;;;1.10;1.00;;;;;;;16.50;31.15;99072.91;105259;1252;72302;-60
2023/03/29 11:35:12;;;;;;;1.30;1.00;;;;;;;16.47;31.55;99074.95;105236;1251;68228;-63
2023/03/29 11:38:04;;;;;;;0.80;0.80;;;;;;;16.37;32.13;99078.87;105423;1260;71621;-63
2023/03/29 11:40:46;;;;;;;2.30;1.40;;;;;;;16.54;32.46;99083.45;105690;1252;60844;-61
2023/03/29 11:43:22;;;;;;;1.70;1.40;;;;;;;16.52;32.03;99082.33;105190;1254;60875;-60
2023/03/29 11:45:58;;;;;;;1.30;1.20;;;;;;;16.62;31.78;99081.75;105006;1250;72596;-62
2023/03/29 11:48:31;;;;;;;1.30;1.20;;;;;;;16.70;31.41;99084.88;105583;1253;69171;-60
2023/03/29 11:51:18;;;;;;;1.20;1.10;;;;;;;16.57;31.20;99087.63;105267;1252;72292;-60
2023/03/29 11:53:56;;;;;;;1.70;1.00;;;;;;;16.52;31.40;99090.63;105070;1251;61320;-61
2023/03/29 11:56:32;;;;;;;1.30;0.90;;;;;;;16.19;31.71;99090.26;105588;1253;60861;-62
2023/03/29 11:59:27;;;;;;;2.00;1.20;;;;;;;16.09;31.49;99096.00;105207;1252;71055;-61
2023/03/29 12:02:04;;;;;;;1.30;1.20;;;;;;;16.42;31.81;99094.76;105577;1250;68014;-62
2023/03/29 12:04:36;;;;;;;1.40;1.20;;;;;;;16.38;31.36;99098.26;105227;1260;72145;-62
2023/03/29 12:07:33;;;;;;;2.00;1.10;;;;;;;16.24;31.19;99098.26;105258;1254;60747;-62
2023/03/29 12:10:12;;;;;;;1.00;0.80;;;;;;;16.21;31.93;99096.73;105520;1255;60863;-61